sensor_id;sensor_type;location;lat;lon;timestamp;pressure;altitude;pressure_sealevel;temperature;humidity
25638;BME280;13496;51.040;13.680;2023-01-27T00:04:21;100210.44;;;16.19;53.05
25638;BME280;13496;51.040;13.680;2023-01-27T00:09:23;100209.63;;;16.19;53.21
25638;BME280;13496;51.040;13.680;2023-01-27T00:14:24;100196.84;;;16.16;52.99
25638;BME280;13496;51.040;13.680;2023-01-27T00:19:26;100203.72;;;16.17;53.06
25638;BME280;13496;51.040;13.680;2023-01-27T00:24:28;100189.66;;;16.18;53.06
25638;BME280;13496;51.040;13.680;2023-01-27T00:29:39;100188.03;;;16.17;53.20
25638;BME280;13496;51.040;13.680;2023-01-27T00:34:40;100189.81;;;16.16;53.04
25638;BME280;13496;51.040;13.680;2023-01-27T00:39:42;100192.41;;;16.16;52.63
25638;BME280;13496;51.040;13.680;2023-01-27T00:44:44;100200.44;;;16.15;53.01
25638;BME280;13496;51.040;13.680;2023-01-27T00:50:06;100199.63;;;16.14;53.02
25638;BME280;13496;51.040;13.680;2023-01-27T00:55:10;100200.44;;;16.15;53.00
25638;BME280;13496;51.040;13.680;2023-01-27T01:00:13;100209.13;;;16.15;52.51
25638;BME280;13496;51.040;13.680;2023-01-27T01:05:15;100206.66;;;16.14;53.12
25638;BME280;13496;51.040;13.680;2023-01-27T01:10:17;100196.19;;;16.14;53.03
25638;BME280;13496;51.040;13.680;2023-01-27T01:15:19;100193.72;;;16.12;52.97
25638;BME280;13496;51.040;13.680;2023-01-27T01:20:20;100194.53;;;16.13;52.79
25638;BME280;13496;51.040;13.680;2023-01-27T01:25:22;100206.00;;;16.12;52.95
25638;BME280;13496;51.040;13.680;2023-01-27T01:30:24;100199.63;;;16.14;53.16
25638;BME280;13496;51.040;13.680;2023-01-27T01:35:27;100203.72;;;16.17;53.17
25638;BME280;13496;51.040;13.680;2023-01-27T01:40:29;100195.88;;;16.17;53.27
25638;BME280;13496;51.040;13.680;2023-01-27T01:50:35;100201.75;;;16.19;53.31
25638;BME280;13496;51.040;13.680;2023-01-27T01:55:38;100206.34;;;16.17;53.25
25638;BME280;13496;51.040;13.680;2023-01-27T02:00:41;100209.47;;;16.20;53.21
25638;BME280;13496;51.040;13.680;2023-01-27T02:05:43;100207.66;;;16.21;53.08
25638;BME280;13496;51.040;13.680;2023-01-27T02:10:45;100198.81;;;16.22;53.01
25638;BME280;13496;51.040;13.680;2023-01-27T02:15:49;100211.09;;;16.21;53.34
25638;BME280;13496;51.040;13.680;2023-01-27T02:20:54;100210.94;;;16.23;53.02
25638;BME280;13496;51.040;13.680;2023-01-27T02:26:10;100211.75;;;16.24;53.10
25638;BME280;13496;51.040;13.680;2023-01-27T02:31:14;100211.59;;;16.25;52.89
25638;BME280;13496;51.040;13.680;2023-01-27T02:36:17;100208.97;;;16.25;52.76
25638;BME280;13496;51.040;13.680;2023-01-27T02:46:39;100206.38;;;16.25;52.96
25638;BME280;13496;51.040;13.680;2023-01-27T02:51:42;100215.84;;;16.26;52.93
25638;BME280;13496;51.040;13.680;2023-01-27T02:56:44;100226.16;;;16.28;52.93
25638;BME280;13496;51.040;13.680;2023-01-27T03:01:48;100227.00;;;16.28;52.75
25638;BME280;13496;51.040;13.680;2023-01-27T03:06:50;100224.50;;;16.27;52.94
25638;BME280;13496;51.040;13.680;2023-01-27T03:11:52;100228.94;;;16.26;52.71
25638;BME280;13496;51.040;13.680;2023-01-27T03:17:12;100225.19;;;16.29;52.37
25638;BME280;13496;51.040;13.680;2023-01-27T03:22:33;100232.22;;;16.28;52.89
25638;BME280;13496;51.040;13.680;2023-01-27T03:27:35;100226.00;;;16.29;52.78
25638;BME280;13496;51.040;13.680;2023-01-27T03:33:12;100228.63;;;16.29;52.81
25638;BME280;13496;51.040;13.680;2023-01-27T03:38:34;100233.03;;;16.29;52.74
25638;BME280;13496;51.040;13.680;2023-01-27T03:43:55;100240.09;;;16.28;52.67
25638;BME280;13496;51.040;13.680;2023-01-27T03:49:15;100240.72;;;16.30;52.66
25638;BME280;13496;51.040;13.680;2023-01-27T03:54:16;100238.09;;;16.30;52.42
25638;BME280;13496;51.040;13.680;2023-01-27T03:59:18;100239.72;;;16.31;52.55
25638;BME280;13496;51.040;13.680;2023-01-27T04:04:20;100243.50;;;16.29;52.45
25638;BME280;13496;51.040;13.680;2023-01-27T04:09:40;100240.91;;;16.29;52.21
25638;BME280;13496;51.040;13.680;2023-01-27T04:14:42;100243.50;;;16.29;52.49
25638;BME280;13496;51.040;13.680;2023-01-27T04:19:45;100245.31;;;16.28;52.50
25638;BME280;13496;51.040;13.680;2023-01-27T04:24:47;100235.81;;;16.27;52.52
25638;BME280;13496;51.040;13.680;2023-01-27T04:29:48;100236.63;;;16.28;52.55
25638;BME280;13496;51.040;13.680;2023-01-27T04:34:50;100231.06;;;16.31;52.41
25638;BME280;13496;51.040;13.680;2023-01-27T04:39:51;100235.81;;;16.27;52.31
25638;BME280;13496;51.040;13.680;2023-01-27T04:44:53;100235.00;;;16.27;52.70
25638;BME280;13496;51.040;13.680;2023-01-27T04:49:55;100231.72;;;16.25;52.39
25638;BME280;13496;51.040;13.680;2023-01-27T04:54:56;100231.56;;;16.26;52.45
25638;BME280;13496;51.040;13.680;2023-01-27T04:59:58;100234.16;;;16.26;52.26
25638;BME280;13496;51.040;13.680;2023-01-27T05:05:00;100231.25;;;16.29;52.38
25638;BME280;13496;51.040;13.680;2023-01-27T05:10:05;100234.16;;;16.26;52.33
25638;BME280;13496;51.040;13.680;2023-01-27T05:15:07;100226.16;;;16.28;52.17
25638;BME280;13496;51.040;13.680;2023-01-27T05:20:09;100236.63;;;16.28;52.38
25638;BME280;13496;51.040;13.680;2023-01-27T05:25:11;100241.38;;;16.24;52.81
25638;BME280;13496;51.040;13.680;2023-01-27T05:30:13;100260.97;;;16.20;53.03
25638;BME280;13496;51.040;13.680;2023-01-27T05:35:14;100258.03;;;16.15;53.25
25638;BME280;13496;51.040;13.680;2023-01-27T05:40:16;100268.00;;;16.11;53.66
25638;BME280;13496;51.040;13.680;2023-01-27T05:45:18;100263.09;;;16.08;53.52
25638;BME280;13496;51.040;13.680;2023-01-27T05:50:20;100267.81;;;16.05;53.99
25638;BME280;13496;51.040;13.680;2023-01-27T05:55:21;100274.22;;;16.02;53.81
25638;BME280;13496;51.040;13.680;2023-01-27T06:00:23;100275.97;;;16.02;54.04
25638;BME280;13496;51.040;13.680;2023-01-27T06:05:25;100280.88;;;15.96;53.96
25638;BME280;13496;51.040;13.680;2023-01-27T06:10:26;100272.22;;;15.96;54.17
25638;BME280;13496;51.040;13.680;2023-01-27T06:15:28;100286.41;;;15.93;54.16
25638;BME280;13496;51.040;13.680;2023-01-27T06:20:30;100290.03;;;15.92;54.31
25638;BME280;13496;51.040;13.680;2023-01-27T06:25:36;100285.91;;;15.90;54.31
25638;BME280;13496;51.040;13.680;2023-01-27T06:30:39;100292.13;;;15.89;54.44
25638;BME280;13496;51.040;13.680;2023-01-27T06:35:40;100291.44;;;15.87;54.21
25638;BME280;13496;51.040;13.680;2023-01-27T06:40:42;100306.34;;;15.86;54.24
25638;BME280;13496;51.040;13.680;2023-01-27T06:45:44;100306.34;;;15.86;54.66
25638;BME280;13496;51.040;13.680;2023-01-27T06:50:46;100304.72;;;15.85;54.48
25638;BME280;13496;51.040;13.680;2023-01-27T06:55:48;100306.66;;;15.83;54.74
25638;BME280;13496;51.040;13.680;2023-01-27T07:00:50;100302.41;;;15.82;54.54
25638;BME280;13496;51.040;13.680;2023-01-27T07:05:52;100324.31;;;15.81;54.63
25638;BME280;13496;51.040;13.680;2023-01-27T07:10:53;100332.16;;;15.81;54.61
25638;BME280;13496;51.040;13.680;2023-01-27T07:15:55;100319.09;;;15.81;54.61
25638;BME280;13496;51.040;13.680;2023-01-27T07:20:57;100328.06;;;15.79;54.55
25638;BME280;13496;51.040;13.680;2023-01-27T07:26:01;100332.47;;;15.78;54.76
25638;BME280;13496;51.040;13.680;2023-01-27T07:31:03;100336.72;;;15.79;54.72
25638;BME280;13496;51.040;13.680;2023-01-27T07:36:05;100348.84;;;15.80;54.72
25638;BME280;13496;51.040;13.680;2023-01-27T07:41:07;100354.53;;;15.76;54.56
25638;BME280;13496;51.040;13.680;2023-01-27T07:46:08;100354.38;;;15.77;54.65
25638;BME280;13496;51.040;13.680;2023-01-27T07:51:11;100346.66;;;15.76;54.67
25638;BME280;13496;51.040;13.680;2023-01-27T07:56:14;100355.50;;;15.75;54.83
25638;BME280;13496;51.040;13.680;2023-01-27T08:01:15;100347.00;;;15.72;54.73
25638;BME280;13496;51.040;13.680;2023-01-27T08:06:17;100354.69;;;15.74;54.90
25638;BME280;13496;51.040;13.680;2023-01-27T08:11:18;100366.78;;;15.75;54.63
25638;BME280;13496;51.040;13.680;2023-01-27T08:16:20;100372.19;;;15.73;54.76
25638;BME280;13496;51.040;13.680;2023-01-27T08:21:22;100371.19;;;15.75;54.69
25638;BME280;13496;51.040;13.680;2023-01-27T08:26:26;100383.63;;;15.72;54.85
25638;BME280;13496;51.040;13.680;2023-01-27T08:31:28;100381.16;;;15.71;54.63
25638;BME280;13496;51.040;13.680;2023-01-27T08:36:29;100376.59;;;15.73;54.75
25638;BME280;13496;51.040;13.680;2023-01-27T08:41:31;100388.84;;;15.72;54.79
25638;BME280;13496;51.040;13.680;2023-01-27T08:46:33;100392.28;;;15.73;54.85
25638;BME280;13496;51.040;13.680;2023-01-27T08:51:34;100394.91;;;15.73;54.73
25638;BME280;13496;51.040;13.680;2023-01-27T08:56:36;100389.69;;;15.73;54.67
25638;BME280;13496;51.040;13.680;2023-01-27T09:01:38;100399.16;;;15.74;54.68
25638;BME280;13496;51.040;13.680;2023-01-27T09:06:41;100398.19;;;15.75;54.54
25638;BME280;13496;51.040;13.680;2023-01-27T09:11:44;100402.59;;;15.75;54.60
25638;BME280;13496;51.040;13.680;2023-01-27T09:16:45;100395.84;;;15.72;54.77
25638;BME280;13496;51.040;13.680;2023-01-27T09:21:47;100406.31;;;15.72;54.66
25638;BME280;13496;51.040;13.680;2023-01-27T09:26:49;100416.94;;;15.70;54.81
25638;BME280;13496;51.040;13.680;2023-01-27T09:31:51;100417.47;;;15.74;54.64
25638;BME280;13496;51.040;13.680;2023-01-27T09:37:06;100426.31;;;15.73;54.86
25638;BME280;13496;51.040;13.680;2023-01-27T09:42:39;100427.94;;;15.74;54.55
25638;BME280;13496;51.040;13.680;2023-01-27T09:58:39;100429.28;;;15.78;54.61
25638;BME280;13496;51.040;13.680;2023-01-27T10:04:12;100428.28;;;15.79;54.45
25638;BME280;13496;51.040;13.680;2023-01-27T10:15:21;100422.22;;;15.79;54.34
25638;BME280;13496;51.040;13.680;2023-01-27T10:20:41;100416.19;;;15.78;54.45
25638;BME280;13496;51.040;13.680;2023-01-27T10:32:16;100417.00;;;15.79;54.60
25638;BME280;13496;51.040;13.680;2023-01-27T10:47:26;100421.59;;;15.77;54.38
25638;BME280;13496;51.040;13.680;2023-01-27T10:52:37;100418.44;;;15.73;54.45
25638;BME280;13496;51.040;13.680;2023-01-27T10:57:51;100420.09;;;15.74;54.63
25638;BME280;13496;51.040;13.680;2023-01-27T11:03:08;100421.72;;;15.75;54.41
25638;BME280;13496;51.040;13.680;2023-01-27T11:08:16;100430.25;;;15.77;54.50
25638;BME280;13496;51.040;13.680;2023-01-27T11:13:18;100428.75;;;15.75;54.40
25638;BME280;13496;51.040;13.680;2023-01-27T11:18:21;100433.97;;;15.75;54.47
25638;BME280;13496;51.040;13.680;2023-01-27T11:23:29;100426.31;;;15.73;54.46
25638;BME280;13496;51.040;13.680;2023-01-27T11:34:18;100419.78;;;15.77;54.30
25638;BME280;13496;51.040;13.680;2023-01-27T11:39:20;100412.91;;;15.76;54.13
25638;BME280;13496;51.040;13.680;2023-01-27T11:44:32;100410.31;;;15.76;54.44
25638;BME280;13496;51.040;13.680;2023-01-27T11:49:42;100415.53;;;15.76;54.29
25638;BME280;13496;51.040;13.680;2023-01-27T12:00:00;100410.59;;;15.73;54.44
25638;BME280;13496;51.040;13.680;2023-01-27T12:05:12;100410.31;;;15.76;54.26
25638;BME280;13496;51.040;13.680;2023-01-27T12:10:22;100398.19;;;15.75;54.20
25638;BME280;13496;51.040;13.680;2023-01-27T12:15:28;100392.13;;;15.75;54.41
25638;BME280;13496;51.040;13.680;2023-01-27T12:20:39;100386.06;;;15.74;54.29
25638;BME280;13496;51.040;13.680;2023-01-27T12:25:45;100382.19;;;15.78;54.25
25638;BME280;13496;51.040;13.680;2023-01-27T12:30:48;100372.69;;;15.77;54.24
25638;BME280;13496;51.040;13.680;2023-01-27T12:35:50;100389.22;;;15.78;54.17
25638;BME280;13496;51.040;13.680;2023-01-27T12:40:58;100386.06;;;15.74;54.20
25638;BME280;13496;51.040;13.680;2023-01-27T12:51:22;100381.81;;;15.73;54.13
25638;BME280;13496;51.040;13.680;2023-01-27T12:56:24;100369.41;;;15.75;54.16
25638;BME280;13496;51.040;13.680;2023-01-27T13:01:32;100371.06;;;15.76;54.14
25638;BME280;13496;51.040;13.680;2023-01-27T13:11:48;100376.28;;;15.76;54.08
25638;BME280;13496;51.040;13.680;2023-01-27T13:16:51;100376.44;;;15.75;54.15
25638;BME280;13496;51.040;13.680;2023-01-27T13:21:53;100373.16;;;15.72;54.03
25638;BME280;13496;51.040;13.680;2023-01-27T13:26:58;100371.38;;;15.73;54.05
25638;BME280;13496;51.040;13.680;2023-01-27T13:32:10;100383.47;;;15.74;54.09
25638;BME280;13496;51.040;13.680;2023-01-27T13:37:27;100376.44;;;15.75;54.11
25638;BME280;13496;51.040;13.680;2023-01-27T13:42:53;100375.44;;;15.76;54.02
25638;BME280;13496;51.040;13.680;2023-01-27T13:48:02;100385.91;;;15.76;54.02
25638;BME280;13496;51.040;13.680;2023-01-27T13:53:11;100378.22;;;15.74;53.97
25638;BME280;13496;51.040;13.680;2023-01-27T13:58:24;100391.31;;;15.74;54.09
25638;BME280;13496;51.040;13.680;2023-01-27T14:03:52;100387.06;;;15.73;54.14
25638;BME280;13496;51.040;13.680;2023-01-27T14:09:18;100379.84;;;15.75;54.15
25638;BME280;13496;51.040;13.680;2023-01-27T14:14:49;100382.19;;;15.78;53.86
25638;BME280;13496;51.040;13.680;2023-01-27T14:20:13;100380.53;;;15.77;54.02
25638;BME280;13496;51.040;13.680;2023-01-27T14:31:07;100399.66;;;15.78;53.93
25638;BME280;13496;51.040;13.680;2023-01-27T14:36:56;100407.69;;;15.76;54.07
25638;BME280;13496;51.040;13.680;2023-01-27T14:41:54;100417.47;;;15.74;53.86
25638;BME280;13496;51.040;13.680;2023-01-27T14:53:12;100415.66;;;15.75;53.97
25638;BME280;13496;51.040;13.680;2023-01-27T14:58:31;100426.13;;;15.75;53.95
25638;BME280;13496;51.040;13.680;2023-01-27T15:09:58;100431.84;;;15.70;53.92
25638;BME280;13496;51.040;13.680;2023-01-27T15:15:30;100430.34;;;15.67;54.05
25638;BME280;13496;51.040;13.680;2023-01-27T15:26:11;100440.97;;;15.66;54.18
25638;BME280;13496;51.040;13.680;2023-01-27T15:41:28;100435.31;;;15.61;54.43
25638;BME280;13496;51.040;13.680;2023-01-27T15:46:34;100438.78;;;15.61;54.13
25638;BME280;13496;51.040;13.680;2023-01-27T15:51:36;100437.09;;;15.60;54.29
25638;BME280;13496;51.040;13.680;2023-01-27T15:56:43;100445.13;;;15.59;54.30
25638;BME280;13496;51.040;13.680;2023-01-27T16:01:48;100441.69;;;15.58;54.35
25638;BME280;13496;51.040;13.680;2023-01-27T16:07:01;100441.81;;;15.57;54.23
25638;BME280;13496;51.040;13.680;2023-01-27T16:17:32;100456.84;;;15.55;54.34
25638;BME280;13496;51.040;13.680;2023-01-27T16:22:39;100456.03;;;15.54;54.23
25638;BME280;13496;51.040;13.680;2023-01-27T16:27:58;100466.50;;;15.54;54.36
25638;BME280;13496;51.040;13.680;2023-01-27T16:33:02;100469.25;;;15.53;54.50
25638;BME280;13496;51.040;13.680;2023-01-27T16:38:25;100464.19;;;15.51;54.43
25638;BME280;13496;51.040;13.680;2023-01-27T16:44:02;100472.69;;;15.53;54.61
25638;BME280;13496;51.040;13.680;2023-01-27T16:49:19;100473.88;;;15.59;54.73
25638;BME280;13496;51.040;13.680;2023-01-27T16:54:24;100477.31;;;15.59;54.49
25638;BME280;13496;51.040;13.680;2023-01-27T16:59:29;100474.41;;;15.62;54.83
25638;BME280;13496;51.040;13.680;2023-01-27T17:04:32;100478.22;;;15.68;54.93
25638;BME280;13496;51.040;13.680;2023-01-27T17:09:41;100483.16;;;15.71;55.14
25638;BME280;13496;51.040;13.680;2023-01-27T17:14:45;100495.97;;;15.74;54.81
25638;BME280;13496;51.040;13.680;2023-01-27T17:19:48;100494.84;;;15.77;55.01
25638;BME280;13496;51.040;13.680;2023-01-27T17:24:53;100494.84;;;15.77;55.00
25638;BME280;13496;51.040;13.680;2023-01-27T17:30:12;100497.28;;;15.78;54.99
25638;BME280;13496;51.040;13.680;2023-01-27T17:35:26;100499.78;;;15.80;54.99
25638;BME280;13496;51.040;13.680;2023-01-27T17:40:35;100509.09;;;15.82;55.10
25638;BME280;13496;51.040;13.680;2023-01-27T17:45:36;100508.13;;;15.83;55.17
25638;BME280;13496;51.040;13.680;2023-01-27T17:50:38;100513.88;;;15.87;55.16
25638;BME280;13496;51.040;13.680;2023-01-27T17:55:40;100518.50;;;15.93;55.32
25638;BME280;13496;51.040;13.680;2023-01-27T18:00:43;100525.84;;;15.89;55.15
25638;BME280;13496;51.040;13.680;2023-01-27T18:05:47;100520.91;;;15.86;55.44
25638;BME280;13496;51.040;13.680;2023-01-27T18:10:50;100519.94;;;15.87;55.36
25638;BME280;13496;51.040;13.680;2023-01-27T18:15:58;100520.78;;;15.88;55.41
25638;BME280;13496;51.040;13.680;2023-01-27T18:21:01;100526.66;;;15.90;55.49
25638;BME280;13496;51.040;13.680;2023-01-27T18:31:18;100522.34;;;15.99;55.51
25638;BME280;13496;51.040;13.680;2023-01-27T18:36:21;100535.25;;;16.00;55.57
25638;BME280;13496;51.040;13.680;2023-01-27T18:41:26;100537.69;;;16.02;55.62
25638;BME280;13496;51.040;13.680;2023-01-27T18:46:29;100542.81;;;16.03;55.60
25638;BME280;13496;51.040;13.680;2023-01-27T18:51:31;100551.47;;;16.04;55.70
25638;BME280;13496;51.040;13.680;2023-01-27T18:56:32;100555.72;;;16.05;55.89
25638;BME280;13496;51.040;13.680;2023-01-27T19:01:34;100554.78;;;16.06;56.07
25638;BME280;13496;51.040;13.680;2023-01-27T19:06:35;100563.28;;;16.08;55.96
25638;BME280;13496;51.040;13.680;2023-01-27T19:11:37;100557.75;;;16.11;56.03
25638;BME280;13496;51.040;13.680;2023-01-27T19:16:39;100561.19;;;16.11;56.15
25638;BME280;13496;51.040;13.680;2023-01-27T19:21:41;100560.38;;;16.11;56.28
25638;BME280;13496;51.040;13.680;2023-01-27T19:26:43;100560.06;;;16.14;56.45
25638;BME280;13496;51.040;13.680;2023-01-27T19:31:45;100570.25;;;16.17;56.11
25638;BME280;13496;51.040;13.680;2023-01-27T19:36:46;100569.41;;;16.16;56.32
25638;BME280;13496;51.040;13.680;2023-01-27T19:41:48;100571.59;;;16.21;56.29
25638;BME280;13496;51.040;13.680;2023-01-27T19:46:50;100574.34;;;16.19;56.48
25638;BME280;13496;51.040;13.680;2023-01-27T19:51:52;100577.63;;;16.21;56.60
25638;BME280;13496;51.040;13.680;2023-01-27T19:56:54;100577.13;;;16.18;56.44
25638;BME280;13496;51.040;13.680;2023-01-27T20:01:55;100581.66;;;16.16;56.57
25638;BME280;13496;51.040;13.680;2023-01-27T20:06:57;100584.59;;;16.13;56.40
25638;BME280;13496;51.040;13.680;2023-01-27T20:11:59;100588.19;;;16.12;56.32
25638;BME280;13496;51.040;13.680;2023-01-27T20:17:00;100596.19;;;16.10;56.15
25638;BME280;13496;51.040;13.680;2023-01-27T20:22:02;100589.34;;;16.09;56.37
25638;BME280;13496;51.040;13.680;2023-01-27T20:27:04;100599.81;;;16.09;56.51
25638;BME280;13496;51.040;13.680;2023-01-27T20:32:06;100604.19;;;16.09;56.29
25638;BME280;13496;51.040;13.680;2023-01-27T20:37:10;100604.50;;;16.06;56.44
25638;BME280;13496;51.040;13.680;2023-01-27T20:42:11;100602.84;;;16.05;56.34
25638;BME280;13496;51.040;13.680;2023-01-27T20:47:13;100601.22;;;16.04;56.34
25638;BME280;13496;51.040;13.680;2023-01-27T20:52:15;100599.41;;;16.04;56.18
25638;BME280;13496;51.040;13.680;2023-01-27T20:57:18;100585.50;;;16.04;56.09
25638;BME280;13496;51.040;13.680;2023-01-27T21:02:21;100598.75;;;16.02;56.10
25638;BME280;13496;51.040;13.680;2023-01-27T21:07:23;100600.69;;;16.00;56.15
25638;BME280;13496;51.040;13.680;2023-01-27T21:12:25;100608.38;;;16.02;56.01
25638;BME280;13496;51.040;13.680;2023-01-27T21:17:27;100609.34;;;16.01;56.06
25638;BME280;13496;51.040;13.680;2023-01-27T21:22:29;100601.66;;;15.99;55.94
25638;BME280;13496;51.040;13.680;2023-01-27T21:27:31;100600.84;;;15.99;56.06
25638;BME280;13496;51.040;13.680;2023-01-27T21:32:34;100594.94;;;15.96;56.20
25638;BME280;13496;51.040;13.680;2023-01-27T21:37:35;100607.03;;;15.97;56.09
25638;BME280;13496;51.040;13.680;2023-01-27T21:42:38;100603.47;;;15.99;56.08
25638;BME280;13496;51.040;13.680;2023-01-27T21:47:59;100597.38;;;15.98;56.11
25638;BME280;13496;51.040;13.680;2023-01-27T21:53:07;100603.75;;;15.95;55.93
25638;BME280;13496;51.040;13.680;2023-01-27T21:58:10;100601.97;;;15.96;56.01
25638;BME280;13496;51.040;13.680;2023-01-27T22:03:12;100600.16;;;15.96;56.13
25638;BME280;13496;51.040;13.680;2023-01-27T22:08:13;100598.53;;;15.95;56.09
25638;BME280;13496;51.040;13.680;2023-01-27T22:13:16;100601.16;;;15.95;56.12
25638;BME280;13496;51.040;13.680;2023-01-27T22:18:18;100590.00;;;15.93;55.96
25638;BME280;13496;51.040;13.680;2023-01-27T22:23:19;100598.66;;;15.94;55.85
25638;BME280;13496;51.040;13.680;2023-01-27T22:28:21;100597.72;;;15.95;55.85
25638;BME280;13496;51.040;13.680;2023-01-27T22:33:24;100602.94;;;15.95;55.84
25638;BME280;13496;51.040;13.680;2023-01-27T22:38:26;100599.63;;;15.93;55.93
25638;BME280;13496;51.040;13.680;2023-01-27T22:43:28;100595.22;;;15.93;56.02
25638;BME280;13496;51.040;13.680;2023-01-27T22:48:30;100590.81;;;15.94;55.90
25638;BME280;13496;51.040;13.680;2023-01-27T22:53:32;100587.38;;;15.93;55.96
25638;BME280;13496;51.040;13.680;2023-01-27T22:58:34;100599.81;;;15.91;55.77
25638;BME280;13496;51.040;13.680;2023-01-27T23:03:36;100598.97;;;15.91;55.83
25638;BME280;13496;51.040;13.680;2023-01-27T23:08:37;100598.00;;;15.92;55.64
25638;BME280;13496;51.040;13.680;2023-01-27T23:13:39;100605.69;;;15.93;55.71
25638;BME280;13496;51.040;13.680;2023-01-27T23:18:41;100595.50;;;15.90;55.71
25638;BME280;13496;51.040;13.680;2023-01-27T23:23:43;100598.97;;;15.91;55.80
25638;BME280;13496;51.040;13.680;2023-01-27T23:28:45;100593.88;;;15.89;55.81
25638;BME280;13496;51.040;13.680;2023-01-27T23:33:46;100597.19;;;15.91;55.63
25638;BME280;13496;51.040;13.680;2023-01-27T23:38:49;100592.91;;;15.90;55.75
25638;BME280;13496;51.040;13.680;2023-01-27T23:43:52;100592.06;;;15.90;55.69
25638;BME280;13496;51.040;13.680;2023-01-27T23:48:56;100590.28;;;15.90;55.67
25638;BME280;13496;51.040;13.680;2023-01-27T23:53:58;100594.56;;;15.91;55.58
25638;BME280;13496;51.040;13.680;2023-01-27T23:58:59;100591.25;;;15.89;55.54
